Time;durP1;ratioP1;P1;durP2;ratioP2;P2;SDS_P1;SDS_P2;PMS_P1;PMS_P2;Temp;Humidity;BMP_temperature;BMP_pressure;BME280_temperature;BME280_humidity;BME280_pressure;Samples;Min_cycle;Max_cycle;Signal;HPM_P1;HPM_P2
2023/02/24 00:06:42;;;;;;;80.03;31.48;;;2.30;99.90;;;;;;20980617;28;20456;-57
2023/02/24 00:16:45;;;;;;;70.28;27.45;;;1.80;99.90;;;;;;20985057;28;20048;-56
2023/02/24 00:26:55;;;;;;;75.93;29.02;;;1.60;99.90;;;;;;20976840;28;20036;-60
2023/02/24 00:36:58;;;;;;;83.43;30.50;;;1.80;99.90;;;;;;20965897;28;20490;-57
2023/02/24 00:47:01;;;;;;;74.55;30.33;;;2.10;99.90;;;;;;20984496;28;20431;-57
2023/02/24 00:57:03;;;;;;;96.80;33.67;;;2.50;99.90;;;;;;20978349;28;20451;-64
2023/02/24 01:07:09;;;;;;;71.35;29.77;;;2.70;99.90;;;;;;20980800;28;20033;-57
2023/02/24 01:17:11;;;;;;;71.03;30.55;;;2.70;99.90;;;;;;20995932;28;20094;-57
2023/02/24 01:27:16;;;;;;;76.07;30.50;;;2.50;99.90;;;;;;20988222;28;20419;-57
2023/02/24 01:37:18;;;;;;;69.55;27.45;;;2.30;99.90;;;;;;20964933;28;20037;-57
2023/02/24 01:47:20;;;;;;;73.30;28.92;;;2.20;99.90;;;;;;20995905;28;20044;-57
2023/02/24 01:57:25;;;;;;;66.07;26.05;;;2.20;99.90;;;;;;20993015;28;20539;-57
2023/02/24 02:07:28;;;;;;;66.07;27.67;;;2.30;99.90;;;;;;20985846;28;20047;-57
2023/02/24 02:17:34;;;;;;;61.22;23.88;;;2.30;99.90;;;;;;20993125;28;20040;-64
2023/02/24 02:27:51;;;;;;;120.18;42.22;;;1.80;99.90;;;;;;20962533;28;20090;-66
2023/02/24 02:38:11;;;;;;;81.53;30.70;;;1.70;99.90;;;;;;20977842;28;20590;-57
2023/02/24 02:48:19;;;;;;;;;;;1.90;99.90;;;;;;20991163;28;20106;-57
2023/02/24 02:58:25;;;;;;;77.30;29.20;;;1.60;99.90;;;;;;20983120;28;19917;-59
2023/02/24 03:08:33;;;;;;;87.30;32.13;;;1.30;99.90;;;;;;20984251;28;20036;-57
2023/02/24 03:18:39;;;;;;;100.88;34.55;;;1.20;99.90;;;;;;20984098;28;20390;-60
2023/02/24 03:28:49;;;;;;;113.78;38.85;;;1.10;99.90;;;;;;20987134;28;20097;-60
2023/02/24 03:38:51;;;;;;;115.38;38.53;;;1.10;99.90;;;;;;20970246;28;20082;-60
2023/02/24 03:49:01;;;;;;;101.13;35.85;;;1.00;99.90;;;;;;20985351;28;20045;-60
2023/02/24 03:59:28;;;;;;;97.33;34.07;;;0.60;99.90;;;;;;20981861;28;20058;-60
2023/02/24 04:09:32;;;;;;;92.93;34.22;;;0.50;99.90;;;;;;20984030;28;20063;-66
2023/02/24 04:19:42;;;;;;;113.20;35.60;;;0.30;99.90;;;;;;20976171;28;20097;-60
2023/02/24 04:29:51;;;;;;;99.93;33.40;;;0.40;99.90;;;;;;20979085;28;20037;-60
2023/02/24 04:39:54;;;;;;;125.82;39.83;;;0.30;99.90;;;;;;20966464;28;20090;-59
2023/02/24 04:50:05;;;;;;;116.13;38.65;;;0.20;99.90;;;;;;20993045;28;20082;-66
2023/02/24 05:00:20;;;;;;;84.07;31.15;;;0.50;99.90;;;;;;20990799;28;20393;-60
2023/02/24 05:10:26;;;;;;;73.07;27.13;;;0.60;99.90;;;;;;20991801;28;20493;-58
2023/02/24 05:30:49;;;;;;;38.67;16.20;;;0.50;99.90;;;;;;20995280;28;20036;-59
2023/02/24 05:41:03;;;;;;;50.20;20.25;;;0.50;99.90;;;;;;20980553;28;20068;-60
2023/02/24 05:51:10;;;;;;;55.58;23.60;;;0.50;99.90;;;;;;20990947;28;20044;-58
2023/02/24 06:01:20;;;;;;;101.32;35.78;;;0.50;99.90;;;;;;20979753;28;20033;-60
2023/02/24 06:11:21;;;;;;;87.93;32.42;;;0.70;99.90;;;;;;20959751;28;20051;-60
2023/02/24 06:21:28;;;;;;;111.40;37.75;;;0.30;99.90;;;;;;20969920;28;20397;-59
2023/02/24 06:31:29;;;;;;;125.25;39.90;;;0.40;99.90;;;;;;20955972;28;20030;-66
2023/02/24 06:41:31;;;;;;;242.30;55.30;;;0.50;99.90;;;;;;20952505;28;20099;-58
2023/02/24 06:51:33;;;;;;;145.93;46.90;;;0.90;99.90;;;;;;20979545;28;20086;-63
2023/02/24 07:01:43;;;;;;;159.65;47.65;;;1.40;99.90;;;;;;20989781;28;20044;-64
2023/02/24 07:11:50;;;;;;;111.90;39.23;;;1.80;99.90;;;;;;20980971;28;20044;-64
2023/02/24 07:21:59;;;;;;;138.93;46.10;;;2.00;99.90;;;;;;20976467;28;20550;-57
2023/02/24 07:32:04;;;;;;;141.23;48.80;;;2.30;99.90;;;;;;20963300;28;20443;-57
2023/02/24 07:42:12;;;;;;;115.47;44.25;;;2.60;99.90;;;;;;20948772;28;20044;-57
2023/02/24 07:52:18;;;;;;;146.82;47.75;;;2.80;99.90;;;;;;20955986;28;20036;-57
2023/02/24 08:02:22;;;;;;;138.70;48.22;;;3.00;99.90;;;;;;20904052;28;20088;-56
2023/02/24 08:12:26;;;;;;;106.20;41.63;;;3.20;99.90;;;;;;20903897;28;20098;-57
2023/02/24 08:22:34;;;;;;;461.77;54.63;;;3.70;99.90;;;;;;20911254;28;20040;-57
2023/02/24 08:32:37;;;;;;;122.50;48.28;;;4.40;99.90;;;;;;20919718;28;20033;-63
2023/02/24 08:42:39;;;;;;;112.20;45.35;;;4.50;99.90;;;;;;20917100;28;20466;-57
2023/02/24 08:52:40;;;;;;;94.95;41.17;;;4.80;99.90;;;;;;20917733;28;20033;-56
2023/02/24 09:02:42;;;;;;;580.13;57.78;;;5.50;99.90;;;;;;20918053;28;20059;-56
2023/02/24 09:12:44;;;;;;;659.88;47.38;;;5.70;99.90;;;;;;20915141;28;20398;-63
2023/02/24 09:33:21;;;;;;;1401.57;85.03;;;5.10;99.90;;;;;;20905411;28;20402;-57
2023/02/24 09:43:26;;;;;;;424.33;48.15;;;4.90;99.90;;;;;;20914099;28;20029;-64
2023/02/24 09:53:37;;;;;;;488.60;46.92;;;4.90;99.90;;;;;;20912417;28;20075;-57
2023/02/24 10:03:47;;;;;;;230.32;40.30;;;5.50;99.90;;;;;;20912306;28;20032;-63
2023/02/24 10:13:53;;;;;;;447.35;50.70;;;5.70;99.90;;;;;;20910379;28;20110;-57
2023/02/24 10:24:21;;;;;;;865.08;57.85;;;5.90;99.90;;;;;;20910799;28;20033;-63
2023/02/24 10:34:30;;;;;;;176.98;31.05;;;6.50;99.90;;;;;;20911464;28;20439;-64
2023/02/24 10:44:35;;;;;;;345.17;37.17;;;7.20;99.90;;;;;;20907285;28;20536;-62
2023/02/24 11:05:25;;;;;;;140.02;37.13;;;7.80;99.90;;;;;;20899224;28;20040;-54
2023/02/24 11:26:03;;;;;;;56.58;30.67;;;9.20;99.90;;;;;;20904869;28;20474;-49
2023/02/24 11:36:36;;;;;;;59.70;33.92;;;10.60;99.90;;;;;;20905411;28;20040;-51
2023/02/24 11:46:53;;;;;;;73.40;35.13;;;10.80;99.90;;;;;;20887051;28;20079;-64
2023/02/24 11:56:58;;;;;;;79.65;37.28;;;11.40;99.90;;;;;;20904171;28;20043;-63
2023/02/24 12:07:31;;;;;;;119.50;40.88;;;9.80;99.90;;;;;;20902601;28;20071;-55
2023/02/24 12:17:34;;;;;;;94.03;37.95;;;8.10;99.90;;;;;;20903676;28;20044;-57
2023/02/24 12:27:41;;;;;;;79.95;38.30;;;7.30;99.90;;;;;;20901861;28;20087;-57
2023/02/24 12:38:08;;;;;;;79.75;40.97;;;6.90;99.90;;;;;;20902893;28;20036;-56
2023/02/24 12:48:28;;;;;;;65.60;33.65;;;7.60;99.90;;;;;;20902348;28;20037;-55
2023/02/24 12:58:32;;;;;;;;;;;9.70;99.90;;;;;;20902709;28;20063;-56
2023/02/24 13:08:45;;;;;;;78.97;39.55;;;10.00;99.90;;;;;;20907519;28;19919;-57
2023/02/24 13:18:47;;;;;;;76.95;36.15;;;9.20;99.90;;;;;;20916300;28;20025;-63
2023/02/24 13:29:17;;;;;;;67.47;34.58;;;7.80;99.90;;;;;;20915422;28;20037;-57
2023/02/24 13:39:34;;;;;;;138.45;44.15;;;7.40;99.90;;;;;;20912340;28;20449;-57
2023/02/24 13:49:48;;;;;;;68.88;35.30;;;7.30;99.90;;;;;;20914621;28;20059;-56
2023/02/24 14:00:10;;;;;;;93.85;40.13;;;7.10;99.90;;;;;;20912999;28;20033;-64
2023/02/24 14:10:22;;;;;;;81.47;37.00;;;6.90;99.90;;;;;;20912036;28;20087;-55
2023/02/24 14:20:24;;;;;;;40.28;17.92;;;6.70;99.90;;;;;;20911470;28;20045;-57
2023/02/24 14:30:36;;;;;;;76.25;37.30;;;6.80;99.90;;;;;;20910452;28;20063;-56
2023/02/24 14:40:47;;;;;;;125.43;39.78;;;7.20;99.90;;;;;;20911263;28;20087;-63
2023/02/24 14:50:49;;;;;;;255.30;47.15;;;7.00;99.90;;;;;;20908255;28;20037;-59
2023/02/24 15:01:02;;;;;;;174.05;41.25;;;6.40;99.90;;;;;;20908121;28;20091;-57
2023/02/24 15:11:17;;;;;;;98.10;39.70;;;6.00;99.90;;;;;;20906967;28;20052;-57
2023/02/24 15:21:37;;;;;;;89.35;38.95;;;5.70;99.90;;;;;;20905446;28;20453;-57
2023/02/24 15:31:39;;;;;;;82.93;37.40;;;5.60;99.90;;;;;;20905630;28;20682;-63
2023/02/24 15:41:43;;;;;;;80.10;34.80;;;5.50;99.90;;;;;;20905181;28;20033;-64
2023/02/24 15:51:47;;;;;;;77.28;35.30;;;5.40;99.90;;;;;;20903498;28;20036;-56
2023/02/24 16:01:50;;;;;;;55.03;26.83;;;5.30;99.90;;;;;;20900032;28;20094;-57
2023/02/24 16:11:52;;;;;;;85.32;35.83;;;5.20;99.90;;;;;;20903571;28;20052;-63
2023/02/24 16:21:53;;;;;;;78.57;33.20;;;5.20;99.90;;;;;;20903087;28;20063;-64
2023/02/24 16:31:55;;;;;;;70.78;30.23;;;5.10;99.90;;;;;;20902801;28;20547;-58
2023/02/24 16:41:58;;;;;;;53.50;24.63;;;5.00;99.90;;;;;;20903131;28;20032;-57
2023/02/24 16:51:59;;;;;;;43.10;21.02;;;5.00;99.90;;;;;;20918059;28;20044;-52
2023/02/24 17:02:01;;;;;;;37.00;17.35;;;4.90;99.90;;;;;;20917679;28;20079;-57
2023/02/24 17:12:03;;;;;;;31.60;10.30;;;4.60;99.90;;;;;;20916389;28;20033;-64
2023/02/24 17:22:05;;;;;;;26.65;12.88;;;4.70;99.90;;;;;;20914452;28;20045;-57
2023/02/24 17:32:06;;;;;;;31.63;14.65;;;4.80;99.90;;;;;;20914010;28;20098;-63
2023/02/24 17:42:08;;;;;;;50.50;20.85;;;4.90;99.90;;;;;;20911732;28;20398;-64
2023/02/24 17:52:10;;;;;;;58.83;25.73;;;4.70;99.90;;;;;;20913107;28;20091;-64
2023/02/24 18:02:14;;;;;;;63.05;28.55;;;4.70;99.90;;;;;;20911394;28;20474;-64
2023/02/24 18:12:17;;;;;;;59.42;26.63;;;4.70;99.90;;;;;;20909853;28;20102;-64
2023/02/24 18:22:19;;;;;;;56.72;25.73;;;4.60;99.90;;;;;;20911120;28;20037;-64
2023/02/24 18:32:21;;;;;;;62.33;27.52;;;4.50;99.90;;;;;;20906208;28;20033;-64
2023/02/24 18:42:23;;;;;;;44.05;18.92;;;4.50;99.90;;;;;;20948108;28;20492;-57
2023/02/24 18:52:24;;;;;;;41.88;19.08;;;4.50;99.90;;;;;;20918466;28;20041;-64
2023/02/24 19:02:26;;;;;;;32.50;15.10;;;4.40;99.90;;;;;;20907267;28;20099;-57
2023/02/24 19:12:27;;;;;;;32.53;14.57;;;4.40;99.90;;;;;;20907143;28;20576;-64
2023/02/24 19:22:29;;;;;;;26.27;11.30;;;4.50;99.90;;;;;;20905662;28;20056;-57
2023/02/24 19:32:31;;;;;;;32.78;14.05;;;4.50;99.90;;;;;;20906288;28;20465;-64
2023/02/24 19:42:33;;;;;;;24.30;10.48;;;4.40;99.90;;;;;;20904016;28;20386;-58
2023/02/24 19:52:34;;;;;;;34.05;14.52;;;4.30;99.90;;;;;;20904300;28;20037;-64
2023/02/24 20:02:37;;;;;;;33.53;12.93;;;4.20;99.90;;;;;;20903962;28;20106;-65
2023/02/24 20:12:39;;;;;;;31.27;13.13;;;4.30;99.90;;;;;;20903017;28;20118;-65
2023/02/24 20:22:41;;;;;;;23.60;9.52;;;4.50;99.90;;;;;;20919110;28;20044;-59
2023/02/24 20:32:43;;;;;;;22.55;6.55;;;4.50;99.90;;;;;;20919340;28;20075;-59
2023/02/24 20:42:45;;;;;;;14.98;4.18;;;4.60;99.90;;;;;;20918356;28;20181;-59
2023/02/24 20:52:47;;;;;;;16.05;5.65;;;4.60;99.90;;;;;;20916846;28;20037;-59
2023/02/24 21:02:48;;;;;;;17.95;6.90;;;4.30;99.90;;;;;;20917029;28;20044;-59
2023/02/24 21:12:51;;;;;;;16.23;6.07;;;4.10;99.90;;;;;;20916693;28;20114;-64
2023/02/24 21:22:53;;;;;;;14.10;5.53;;;4.10;99.90;;;;;;20896956;28;20045;-64
2023/02/24 21:32:54;;;;;;;9.05;4.97;;;4.00;99.90;;;;;;20911059;28;20040;-65
2023/02/24 21:42:56;;;;;;;12.18;4.97;;;4.10;99.90;;;;;;20913044;28;20382;-60
2023/02/24 21:52:59;;;;;;;19.13;7.00;;;4.20;99.90;;;;;;20914066;28;20540;-59
2023/02/24 22:03:01;;;;;;;15.23;6.57;;;4.30;99.90;;;;;;20914144;28;20182;-60
2023/02/24 22:13:03;;;;;;;17.45;7.40;;;4.40;99.90;;;;;;20885417;28;20037;-64
2023/02/24 22:23:04;;;;;;;20.17;8.95;;;4.50;99.90;;;;;;20870616;28;20029;-64
2023/02/24 22:33:06;;;;;;;22.35;7.80;;;4.50;99.90;;;;;;20910709;28;20037;-60
2023/02/24 22:43:08;;;;;;;19.50;9.07;;;4.70;99.90;;;;;;20908529;28;20045;-60
2023/02/24 22:53:09;;;;;;;23.30;8.07;;;4.80;99.90;;;;;;20909302;28;20561;-60
2023/02/24 23:03:16;;;;;;;21.30;7.55;;;4.60;99.90;;;;;;20908180;28;20044;-60
2023/02/24 23:13:19;;;;;;;18.15;8.63;;;4.70;99.90;;;;;;20907701;28;20087;-60
2023/02/24 23:23:22;;;;;;;21.27;8.88;;;4.80;99.90;;;;;;20907856;28;20090;-60
2023/02/24 23:33:24;;;;;;;22.15;8.05;;;4.80;99.90;;;;;;20905425;28;20037;-67
2023/02/24 23:43:26;;;;;;;16.45;6.82;;;5.00;99.90;;;;;;20905595;28;20041;-60
2023/02/24 23:53:27;;;;;;;23.63;8.38;;;5.10;99.90;;;;;;20904370;28;20029;-60
